Atmospheric History
01/21/2019 03:42  to  1/22/2019 03:42
Change End Date:
To complete the export process:
1) Select all of the data below
2) Copy the data to the clipboard
3) Open a word processor such as Notepad
4) Paste the data into the word processor
5) Save the file

Date/Time (MST), AirTemp, RH, Dewpoint ,AvgWindSpeed, GustWindSpeed, WindDirection, PrecipType, PrecipIntensity, PrecipAccumulation, PrecipRate
01/22/2019 03:36, 15, 89, 13 ,7, 9, SW, Yes, , ,  
01/22/2019 03:27, 15, 89, 13 ,7, 9, SW, None, None, ,  
01/22/2019 03:26, 15, 89, 13 ,7, 9, SW, None, None, ,  
01/22/2019 03:16, 16, 90, 13 ,6, 9, SW, None, None, ,  
01/22/2019 03:12, 16, 90, 13 ,7, 9, SW, None, None, ,  
01/22/2019 03:06, 16, 90, 14 ,8, 11, SW, None, None, ,  
01/22/2019 02:57, 16, 90, 14 ,7, 10, SW, None, None, ,  
01/22/2019 02:56, 16, 90, 14 ,7, 10, SW, None, None, ,  
01/22/2019 02:46, 16, 90, 14 ,10, 12, SW, None, None, ,  
01/22/2019 02:42, 16, 90, 14 ,9, 11, SW, None, None, ,  
01/22/2019 02:36, 16, 90, 14 ,9, 11, SW, Yes, , ,  
01/22/2019 02:27, 16, 90, 14 ,2, 3, SW, None, None, ,  
01/22/2019 02:26, 16, 90, 14 ,2, 3, SW, None, None, ,  
01/22/2019 02:16, 16, 90, 14 ,2, 2, W, None, None, ,  
01/22/2019 02:12, 16, 90, 14 ,2, 2, SW, None, None, ,  
01/22/2019 02:06, 17, 90, 14 ,1, 2, SW, None, None, ,  
01/22/2019 01:57, 17, 90, 14 ,0, 1, W, None, None, ,  
01/22/2019 01:56, 17, 90, 14 ,0, 1, W, None, None, ,  
01/22/2019 01:46, 16, 90, 14 ,1, 4, W, Yes, , ,  
01/22/2019 01:42, 16, 90, 14 ,1, 1, NW, Yes, , ,  
01/22/2019 01:36, 16, 90, 14 ,0, 1, W, None, None, ,  
01/22/2019 01:27, 16, 90, 14 ,1, 2, SW, None, None, ,  
01/22/2019 01:26, 16, 90, 14 ,1, 2, SW, None, None, ,  
01/22/2019 01:16, 16, 90, 14 ,1, 2, SW, None, None, ,  
01/22/2019 01:12, 16, 90, 14 ,1, 2, S, None, None, ,  
01/22/2019 01:06, 16, 90, 14 ,1, 2, SW, Yes, , ,  
01/22/2019 00:57, 16, 90, 14 ,1, 2, SW, None, None, ,  
01/22/2019 00:56, 16, 90, 14 ,1, 2, S, None, None, ,  
01/22/2019 00:46, 17, 90, 14 ,1, 3, SW, None, None, ,  
01/22/2019 00:42, 17, 91, 14 ,1, 2, SW, None, None, ,  
01/22/2019 00:35, 16, 90, 14 ,1, 3, N, None, None, ,  
01/22/2019 00:27, 16, 91, 14 ,1, 3, W, None, None, ,  
01/22/2019 00:25, 16, 91, 14 ,0, 2, SE, None, None, ,  
01/22/2019 00:15, 16, 91, 13 ,0, 1, SW, None, None, ,  
01/22/2019 00:12, 16, 90, 13 ,0, 1, SW, Yes, , ,  
01/22/2019 00:05, 16, 91, 13 ,0, 2, SW, Yes, , ,  
01/21/2019 23:57, 15, 90, 13 ,2, 4, SW, Yes, , ,  
01/21/2019 23:55, 16, 90, 13 ,3, 4, S, None, None, ,  
01/21/2019 23:45, 17, 91, 15 ,2, 4, SW, None, None, ,  
01/21/2019 23:42, 17, 91, 15 ,1, 5, S, Yes, , ,  
01/21/2019 23:35, 17, 91, 14 ,4, 6, S, None, None, ,  
01/21/2019 23:27, 17, 91, 15 ,2, 4, S, Yes, , ,  
01/21/2019 23:25, 17, 91, 15 ,2, 4, S, None, None, ,  
01/21/2019 23:15, 17, 91, 15 ,3, 4, S, None, None, ,  
01/21/2019 23:12, 17, 91, 15 ,4, 4, SW, None, None, ,  
01/21/2019 23:05, 18, 91, 16 ,3, 4, S, Yes, , ,  
01/21/2019 22:57, 18, 91, 16 ,2, 4, SW, Yes, , ,  
01/21/2019 22:55, 18, 91, 16 ,2, 4, SW, Yes, , ,  
01/21/2019 22:45, 18, 91, 16 ,2, 5, SW, Yes, , ,  
01/21/2019 22:42, 18, 91, 16 ,3, 5, SW, Yes, , ,  
01/21/2019 22:35, 18, 91, 16 ,1, 2, SW, Yes, , ,  
01/21/2019 22:27, 18, 91, 16 ,1, 2, W, Yes, , ,  
01/21/2019 22:25, 18, 91, 16 ,1, 2, W, Yes, , ,  
01/21/2019 22:15, 18, 91, 16 ,1, 3, SW, Yes, , ,  
01/21/2019 22:12, 18, 91, 16 ,2, 4, W, Yes, , ,  
01/21/2019 22:05, 17, 91, 15 ,2, 4, SW, None, None, ,  
01/21/2019 21:57, 18, 91, 16 ,2, 3, SW, Yes, , ,  
01/21/2019 21:55, 18, 91, 16 ,3, 4, SW, Yes, , ,  
01/21/2019 21:45, 18, 91, 16 ,3, 6, W, Yes, , ,  
01/21/2019 21:43, 18, 91, 16 ,3, 6, SW, Yes, , ,  
01/21/2019 21:35, 18, 91, 16 ,2, 4, SW, Yes, , ,  
01/21/2019 21:28, 18, 91, 16 ,3, 4, W, Yes, , ,  
01/21/2019 21:24, 18, 91, 16 ,2, 4, W, Yes, , ,  
01/21/2019 21:14, 18, 91, 16 ,2, 4, SW, Yes, , ,  
01/21/2019 21:12, 18, 91, 16 ,2, 4, W, Yes, , ,  
01/21/2019 21:04, 18, 91, 16 ,2, 4, W, Yes, , ,  
01/21/2019 20:57, 18, 91, 16 ,3, 6, W, Yes, , ,  
01/21/2019 20:54, 18, 91, 16 ,2, 6, W, Yes, , ,  
01/21/2019 20:44, 18, 91, 16 ,4, 6, W, Yes, , ,  
01/21/2019 20:43, 18, 91, 16 ,4, 6, W, Yes, , ,  
01/21/2019 20:34, 18, 91, 16 ,4, 9, W, Yes, , ,  
01/21/2019 20:28, 18, 91, 16 ,7, 9, W, Yes, , ,  
01/21/2019 20:24, 18, 91, 16 ,6, 8, SW, Yes, , ,  
01/21/2019 20:14, 19, 91, 17 ,4, 7, W, Yes, , ,  
01/21/2019 20:13, 19, 91, 17 ,4, 9, W, Yes, , ,  
01/21/2019 20:04, 19, 91, 17 ,6, 7, W, Yes, , ,  
01/21/2019 19:57, 19, 91, 16 ,4, 5, W, Yes, , ,  
01/21/2019 19:54, 19, 91, 17 ,2, 5, SW, Yes, , ,  
01/21/2019 19:44, 19, 91, 16 ,3, 6, W, Yes, , ,  
01/21/2019 19:43, 19, 91, 16 ,3, 6, W, Yes, , ,  
01/21/2019 19:34, 19, 91, 17 ,4, 7, W, Yes, , ,  
01/21/2019 19:28, 19, 91, 17 ,6, 7, W, Yes, , ,  
01/21/2019 19:24, 19, 91, 17 ,6, 7, W, Yes, , ,  
01/21/2019 19:14, 19, 91, 17 ,4, 6, W, Yes, , ,  
01/21/2019 19:13, 19, 91, 17 ,4, 6, W, Yes, , ,  
01/21/2019 19:04, 19, 91, 16 ,3, 6, W, Yes, , ,  
01/21/2019 18:58, 19, 91, 16 ,4, 6, W, Yes, , ,  
01/21/2019 18:54, 19, 91, 16 ,4, 7, W, Yes, , ,  
01/21/2019 18:44, 19, 90, 16 ,6, 7, W, Yes, , ,  
01/21/2019 18:43, 19, 90, 16 ,6, 7, W, Yes, , ,  
01/21/2019 18:34, 19, 90, 16 ,6, 8, W, Yes, , ,  
01/21/2019 18:28, 18, 89, 16 ,5, 7, W, Yes, , ,  
01/21/2019 18:23, 19, 89, 16 ,5, 7, W, Yes, , ,  
01/21/2019 18:13, 19, 89, 16 ,5, 7, W, Yes, , ,  
01/21/2019 18:13, 19, 89, 16 ,6, 7, W, Yes, , ,  
01/21/2019 18:03, 19, 88, 16 ,4, 7, W, Yes, , ,  
01/21/2019 17:55, 19, 87, 15 ,4, 7, NW, Yes, , ,  
01/21/2019 17:53, 19, 87, 16 ,5, 8, W, Yes, , ,  
01/21/2019 17:43, 19, 85, 15 ,6, 11, NW, Yes, , ,  
01/21/2019 17:41, 19, 85, 15 ,6, 11, W, Yes, , ,  
01/21/2019 17:33, 19, 84, 15 ,6, 13, W, Yes, , ,  
01/21/2019 17:27, 19, 82, 15 ,9, 13, W, Yes, , ,  
01/21/2019 17:23, 19, 82, 15 ,8, 16, W, Yes, , ,  
01/21/2019 17:13, 19, 80, 14 ,11, 13, W, Yes, , ,  
01/21/2019 17:12, 19, 80, 14 ,10, 13, W, None, None, ,  
01/21/2019 17:03, 19, 79, 14 ,11, 14, W, Yes, , ,  
01/21/2019 16:57, 20, 77, 14 ,9, 14, W, Yes, , ,  
01/21/2019 16:53, 20, 77, 14 ,7, 14, W, Yes, , ,  
01/21/2019 16:43, 20, 77, 13 ,7, 13, W, Yes, , ,  
01/21/2019 16:42, 20, 76, 13 ,8, 13, W, Yes, , ,  
01/21/2019 16:33, 20, 75, 13 ,12, 16, W, Yes, , ,  
01/21/2019 16:27, 20, 76, 14 ,9, 14, W, Yes, , ,  
01/21/2019 16:23, 20, 76, 14 ,9, 14, W, Yes, , ,  
01/21/2019 16:13, 20, 71, 13 ,7, 12, W, None, None, ,  
01/21/2019 16:12, 20, 71, 12 ,7, 12, W, None, None, ,  
01/21/2019 16:03, 20, 70, 12 ,11, 14, W, Yes, , ,  
01/21/2019 15:57, 21, 69, 12 ,10, 12, W, None, None, ,  
01/21/2019 15:53, 21, 68, 12 ,9, 12, W, Yes, , ,  
01/21/2019 15:43, 21, 66, 12 ,7, 9, W, None, None, ,  
01/21/2019 15:43, 21, 66, 12 ,7, 9, W, None, None, ,  
01/21/2019 15:33, 21, 65, 11 ,7, 15, W, None, None, ,  
01/21/2019 15:27, 21, 64, 11 ,9, 15, W, None, None, ,  
01/21/2019 15:22, 21, 64, 11 ,7, 12, W, None, None, ,  
01/21/2019 15:12, 21, 62, 10 ,9, 14, W, None, None, ,  
01/21/2019 15:12, 21, 62, 10 ,9, 14, W, None, None, ,  
01/21/2019 15:02, 22, 61, 10 ,9, 14, W, None, None, ,  
01/21/2019 14:57, 21, 61, 10 ,10, 16, W, None, None, ,  
01/21/2019 14:52, 21, 60, 10 ,10, 16, W, None, None, ,  
01/21/2019 14:42, 22, 61, 10 ,9, 12, W, None, None, ,  
01/21/2019 14:42, 22, 61, 10 ,9, 12, W, None, None, ,  
01/21/2019 14:32, 22, 63, 11 ,9, 11, W, None, None, ,  
01/21/2019 14:27, 22, 64, 12 ,6, 12, W, None, None, ,  
01/21/2019 14:22, 22, 65, 12 ,7, 13, W, None, None, ,  
01/21/2019 14:12, 22, 67, 12 ,9, 12, W, None, None, ,  
01/21/2019 14:12, 22, 67, 12 ,9, 12, W, None, None, ,  
01/21/2019 14:02, 22, 68, 13 ,8, 10, W, None, None, ,  
01/21/2019 13:57, 22, 68, 13 ,7, 9, W, None, None, ,  
01/21/2019 13:52, 22, 68, 13 ,6, 8, W, None, None, ,  
01/21/2019 13:43, 22, 67, 12 ,7, 12, W, None, None, ,  
01/21/2019 13:42, 22, 67, 12 ,7, 12, W, None, None, ,  
01/21/2019 13:32, 22, 68, 13 ,4, 14, W, None, None, ,  
01/21/2019 13:28, 22, 68, 13 ,7, 14, W, None, None, ,  
01/21/2019 13:22, 21, 72, 13 ,7, 9, SW, None, None, ,  
01/21/2019 13:12, 22, 72, 14 ,3, 6, W, None, None, ,  
01/21/2019 13:12, 22, 72, 14 ,2, 6, W, None, None, ,  
01/21/2019 13:02, 20, 75, 13 ,4, 6, NW, None, None, ,  
01/21/2019 12:57, 19, 75, 13 ,6, 7, NW, None, None, ,  
01/21/2019 12:52, 20, 76, 13 ,7, 8, NW, None, None, ,  
01/21/2019 12:43, 20, 76, 14 ,7, 10, W, Yes, , ,  
01/21/2019 12:42, 20, 75, 14 ,7, 10, W, Yes, , ,  
01/21/2019 12:32, 21, 73, 14 ,6, 8, W, None, None, ,  
01/21/2019 12:27, 21, 73, 14 ,4, 7, W, None, None, ,  
01/21/2019 12:21, 21, 73, 14 ,5, 8, NW, Yes, , ,  
01/21/2019 12:13, 21, 71, 13 ,6, 12, W, Yes, , ,  
01/21/2019 12:11, 21, 70, 13 ,7, 12, W, Yes, , ,  
01/21/2019 12:01, 21, 71, 13 ,9, 12, W, None, None, ,  
01/21/2019 11:58, 21, 72, 13 ,9, 11, W, None, None, ,  
01/21/2019 11:51, 21, 72, 13 ,8, 10, W, None, None, ,  
01/21/2019 11:42, 21, 73, 14 ,6, 7, W, None, None, ,  
01/21/2019 11:41, 21, 72, 14 ,6, 7, W, None, None, ,  
01/21/2019 11:31, 21, 73, 14 ,6, 9, W, None, None, ,  
01/21/2019 11:27, 21, 75, 15 ,4, 11, W, None, None, ,  
01/21/2019 11:21, 21, 75, 14 ,6, 11, W, None, None, ,  
01/21/2019 11:13, 21, 78, 16 ,4, 7, W, None, None, ,  
01/21/2019 11:11, 21, 78, 16 ,4, 7, NW, None, None, ,  
01/21/2019 11:01, 21, 79, 16 ,6, 9, NW, None, None, ,  
01/21/2019 10:57, 21, 79, 15 ,6, 9, NW, None, None, ,  
01/21/2019 10:51, 20, 80, 15 ,6, 9, W, None, None, ,  
01/21/2019 10:42, 20, 80, 15 ,6, 7, W, None, None, ,  
01/21/2019 10:41, 20, 80, 15 ,6, 7, W, None, None, ,  
01/21/2019 10:31, 20, 79, 15 ,4, 7, W, Yes, , ,  
01/21/2019 10:28, 20, 79, 15 ,4, 7, W, None, None, ,  
01/21/2019 10:21, 20, 79, 15 ,6, 6, W, None, None, ,  
01/21/2019 10:14, 20, 78, 14 ,6, 7, SW, None, None, ,  
01/21/2019 10:11, 20, 78, 14 ,5, 7, W, None, None, ,  
01/21/2019 10:01, 20, 80, 15 ,3, 7, W, None, None, ,  
01/21/2019 09:57, 19, 80, 14 ,4, 5, SW, None, None, ,  
01/21/2019 09:51, 19, 80, 14 ,3, 6, SW, None, None, ,  
01/21/2019 09:43, 19, 80, 14 ,6, 9, SW, Yes, , ,  
01/21/2019 09:41, 19, 80, 13 ,6, 9, SW, Yes, , ,  
01/21/2019 09:31, 17, 79, 12 ,6, 9, SW, None, None, ,  
01/21/2019 09:27, 17, 79, 12 ,6, 9, SW, None, None, ,  
01/21/2019 09:20, 18, 78, 12 ,7, 9, SW, None, None, ,  
01/21/2019 09:12, 19, 78, 13 ,7, 8, SW, None, None, ,  
01/21/2019 09:10, 19, 78, 13 ,6, 9, SW, None, None, ,  
01/21/2019 09:00, 19, 79, 13 ,6, 10, W, None, None, ,  
01/21/2019 08:58, 19, 80, 13 ,6, 10, W, None, None, ,  
01/21/2019 08:50, 18, 80, 13 ,7, 9, W, None, None, ,  
01/21/2019 08:42, 19, 81, 14 ,6, 8, W, None, None, ,  
01/21/2019 08:40, 19, 81, 14 ,6, 8, W, None, None, ,  
01/21/2019 08:30, 19, 82, 15 ,4, 8, NW, None, None, ,  
01/21/2019 08:27, 19, 83, 15 ,4, 8, NW, None, None, ,  
01/21/2019 08:20, 19, 83, 15 ,5, 10, NW, None, None, ,  
01/21/2019 08:13, 19, 85, 16 ,7, 9, W, None, None, ,  
01/21/2019 08:10, 20, 85, 16 ,6, 9, W, None, None, ,  
01/21/2019 08:00, 20, 87, 17 ,7, 10, NW, None, None, ,  
01/21/2019 07:57, 20, 87, 17 ,7, 13, W, None, None, ,  
01/21/2019 07:50, 20, 88, 17 ,9, 13, NW, None, None, ,  
01/21/2019 07:40, 20, 88, 17 ,10, 18, NW, None, None, ,  
01/21/2019 07:40, 20, 88, 17 ,10, 18, W, None, None, ,  
01/21/2019 07:30, 20, 86, 17 ,17, 21, W, None, None, ,  
01/21/2019 07:26, 21, 84, 17 ,11, 14, W, Yes, , ,  
01/21/2019 07:20, 21, 81, 17 ,7, 9, W, Yes, , ,  
01/21/2019 07:14, 21, 80, 16 ,6, 9, W, Yes, , ,  
01/21/2019 07:10, 21, 79, 16 ,7, 10, W, None, None, ,  
01/21/2019 07:00, 22, 79, 16 ,10, 14, SW, None, None, ,  
01/21/2019 06:57, 22, 80, 16 ,10, 14, SW, None, None, ,  
01/21/2019 06:50, 22, 82, 17 ,9, 14, SW, None, None, ,  
01/21/2019 06:43, 21, 84, 17 ,9, 11, SW, None, None, ,  
01/21/2019 06:40, 21, 84, 18 ,8, 10, SW, None, None, ,  
01/21/2019 06:30, 21, 84, 17 ,8, 10, W, None, None, ,  
01/21/2019 06:27, 21, 84, 17 ,7, 10, W, None, None, ,  
01/21/2019 06:20, 21, 84, 17 ,8, 10, W, None, None, ,  
01/21/2019 06:13, 22, 85, 18 ,6, 8, W, None, None, ,  
01/21/2019 06:09, 22, 85, 18 ,6, 8, W, None, None, ,  
01/21/2019 05:59, 22, 85, 18 ,5, 7, W, None, None, ,  
01/21/2019 05:58, 22, 85, 18 ,6, 7, W, None, None, ,  
01/21/2019 05:49, 22, 85, 18 ,5, 7, W, None, None, ,  
01/21/2019 05:43, 22, 85, 18 ,6, 9, W, None, None, ,  
01/21/2019 05:39, 22, 85, 18 ,6, 12, W, None, None, ,  
01/21/2019 05:29, 22, 85, 19 ,9, 11, W, None, None, ,  
01/21/2019 05:27, 22, 85, 19 ,9, 11, W, None, None, ,  
01/21/2019 05:19, 22, 85, 19 ,6, 9, W, None, None, ,  
01/21/2019 05:13, 23, 85, 19 ,6, 9, NW, None, None, ,  
01/21/2019 05:09, 23, 85, 19 ,4, 9, W, None, None, ,  
01/21/2019 04:59, 23, 85, 19 ,6, 9, NW, None, None, ,  
01/21/2019 04:57, 23, 85, 19 ,6, 11, W, None, None, ,  
01/21/2019 04:49, 23, 85, 19 ,8, 12, W, None, None, ,  
01/21/2019 04:42, 23, 85, 19 ,4, 9, NW, Yes, , ,  
01/21/2019 04:39, 23, 85, 20 ,5, 9, W, None, None, ,  
01/21/2019 04:29, 23, 85, 20 ,6, 8, W, Yes, , ,  
01/21/2019 04:28, 23, 85, 20 ,4, 8, W, Yes, , ,  
01/21/2019 04:19, 23, 85, 20 ,5, 8, NW, Yes, , ,  
01/21/2019 04:12, 24, 85, 20 ,6, 9, W, None, None, ,  
01/21/2019 04:09, 24, 84, 20 ,6, 9, NW, None, None, ,  
01/21/2019 03:59, 24, 84, 20 ,6, 8, W, None, None, ,  
01/21/2019 03:57, 24, 84, 20 ,6, 8, W, Yes, , ,  
01/21/2019 03:49, 24, 83, 20 ,4, 9, W, Yes, , ,  
01/21/2019 03:42, 24, 83, 20 ,6, 9, W, None, None, ,  
Change End Date:

Copyright © 1998-2015 Vaisala, Inc.
All Rights Reserved
Send comments about the data to:
SCAN Web ® is a registered trademark of Vaisala, Inc.
SCAN Web Version 6.0